sensor_id;sensor_type;location;lat;lon;timestamp;temperature;humidity
4635;DHT22;2330;48.158;11.816;2024-01-30T00:00:20;0.30;98.50
4635;DHT22;2330;48.158;11.816;2024-01-30T00:02:47;0.20;98.50
4635;DHT22;2330;48.158;11.816;2024-01-30T00:05:14;0.20;98.50
4635;DHT22;2330;48.158;11.816;2024-01-30T00:07:41;0.20;98.50
4635;DHT22;2330;48.158;11.816;2024-01-30T00:10:08;0.20;98.50
4635;DHT22;2330;48.158;11.816;2024-01-30T00:12:35;0.20;98.50
4635;DHT22;2330;48.158;11.816;2024-01-30T00:15:02;0.10;98.50
4635;DHT22;2330;48.158;11.816;2024-01-30T00:17:31;0.10;98.50
4635;DHT22;2330;48.158;11.816;2024-01-30T00:19:57;0.10;98.50
4635;DHT22;2330;48.158;11.816;2024-01-30T00:22:24;0.10;98.50
4635;DHT22;2330;48.158;11.816;2024-01-30T00:24:51;0.10;98.50
4635;DHT22;2330;48.158;11.816;2024-01-30T00:27:18;0.10;98.50
4635;DHT22;2330;48.158;11.816;2024-01-30T00:29:45;0.00;98.50
4635;DHT22;2330;48.158;11.816;2024-01-30T00:32:11;0.00;98.50
4635;DHT22;2330;48.158;11.816;2024-01-30T00:34:38;0.00;98.50
4635;DHT22;2330;48.158;11.816;2024-01-30T00:37:05;0.00;98.50
4635;DHT22;2330;48.158;11.816;2024-01-30T00:39:32;0.00;98.50
4635;DHT22;2330;48.158;11.816;2024-01-30T00:41:59;0.00;98.50
4635;DHT22;2330;48.158;11.816;2024-01-30T00:44:26;0.00;98.50
4635;DHT22;2330;48.158;11.816;2024-01-30T00:46:53;0.00;98.50
4635;DHT22;2330;48.158;11.816;2024-01-30T00:49:20;0.00;98.50
4635;DHT22;2330;48.158;11.816;2024-01-30T00:51:47;0.00;98.50
4635;DHT22;2330;48.158;11.816;2024-01-30T00:54:13;-0.10;98.50
4635;DHT22;2330;48.158;11.816;2024-01-30T00:56:40;-0.10;98.50
4635;DHT22;2330;48.158;11.816;2024-01-30T00:59:07;-0.10;98.50
4635;DHT22;2330;48.158;11.816;2024-01-30T01:01:34;-0.10;98.50
4635;DHT22;2330;48.158;11.816;2024-01-30T01:04:01;-0.10;98.50
4635;DHT22;2330;48.158;11.816;2024-01-30T01:06:27;-0.10;98.50
4635;DHT22;2330;48.158;11.816;2024-01-30T01:08:54;0.10;98.50
4635;DHT22;2330;48.158;11.816;2024-01-30T01:11:21;0.00;98.50
4635;DHT22;2330;48.158;11.816;2024-01-30T01:13:48;-0.10;98.50
4635;DHT22;2330;48.158;11.816;2024-01-30T01:16:15;0.00;98.50
4635;DHT22;2330;48.158;11.816;2024-01-30T01:18:42;-0.10;98.50
4635;DHT22;2330;48.158;11.816;2024-01-30T01:21:09;-0.10;98.50
4635;DHT22;2330;48.158;11.816;2024-01-30T01:23:35;-0.20;98.50
4635;DHT22;2330;48.158;11.816;2024-01-30T01:26:02;-0.20;98.50
4635;DHT22;2330;48.158;11.816;2024-01-30T01:28:29;-0.30;98.50
4635;DHT22;2330;48.158;11.816;2024-01-30T01:30:56;-0.30;98.50
4635;DHT22;2330;48.158;11.816;2024-01-30T01:33:26;-0.30;98.50
4635;DHT22;2330;48.158;11.816;2024-01-30T01:35:53;-0.20;98.50
4635;DHT22;2330;48.158;11.816;2024-01-30T01:38:20;-0.10;98.50
4635;DHT22;2330;48.158;11.816;2024-01-30T01:40:46;0.00;98.50
4635;DHT22;2330;48.158;11.816;2024-01-30T01:43:13;0.00;98.50
4635;DHT22;2330;48.158;11.816;2024-01-30T01:45:40;0.00;98.50
4635;DHT22;2330;48.158;11.816;2024-01-30T01:48:07;-0.10;98.50
4635;DHT22;2330;48.158;11.816;2024-01-30T01:50:35;-0.10;98.50
4635;DHT22;2330;48.158;11.816;2024-01-30T01:53:03;-0.20;98.50
4635;DHT22;2330;48.158;11.816;2024-01-30T01:55:31;-0.30;98.50
4635;DHT22;2330;48.158;11.816;2024-01-30T01:57:59;-0.20;98.50
4635;DHT22;2330;48.158;11.816;2024-01-30T02:00:25;-0.20;98.50
4635;DHT22;2330;48.158;11.816;2024-01-30T02:02:54;-0.20;98.50
4635;DHT22;2330;48.158;11.816;2024-01-30T02:05:21;-0.10;98.50
4635;DHT22;2330;48.158;11.816;2024-01-30T02:07:48;-0.10;98.50
4635;DHT22;2330;48.158;11.816;2024-01-30T02:10:16;-0.10;98.50
4635;DHT22;2330;48.158;11.816;2024-01-30T02:12:43;0.10;98.50
4635;DHT22;2330;48.158;11.816;2024-01-30T02:15:13;0.00;98.50
4635;DHT22;2330;48.158;11.816;2024-01-30T02:17:40;0.00;98.50
4635;DHT22;2330;48.158;11.816;2024-01-30T02:20:07;-0.20;98.50
4635;DHT22;2330;48.158;11.816;2024-01-30T02:22:36;-0.30;98.50
4635;DHT22;2330;48.158;11.816;2024-01-30T02:25:04;-0.40;98.50
4635;DHT22;2330;48.158;11.816;2024-01-30T02:27:31;-0.40;98.50
4635;DHT22;2330;48.158;11.816;2024-01-30T02:29:57;-0.50;98.50
4635;DHT22;2330;48.158;11.816;2024-01-30T02:32:24;-0.60;98.50
4635;DHT22;2330;48.158;11.816;2024-01-30T02:34:51;-0.60;98.50
4635;DHT22;2330;48.158;11.816;2024-01-30T02:37:18;-0.70;98.50
4635;DHT22;2330;48.158;11.816;2024-01-30T02:39:45;-0.70;98.50
4635;DHT22;2330;48.158;11.816;2024-01-30T02:42:11;-0.80;98.50
4635;DHT22;2330;48.158;11.816;2024-01-30T02:44:38;-0.80;98.50
4635;DHT22;2330;48.158;11.816;2024-01-30T02:47:05;-0.80;98.50
4635;DHT22;2330;48.158;11.816;2024-01-30T02:49:32;-0.80;98.50
4635;DHT22;2330;48.158;11.816;2024-01-30T02:51:59;-0.80;98.50
4635;DHT22;2330;48.158;11.816;2024-01-30T02:54:26;-0.80;98.50
4635;DHT22;2330;48.158;11.816;2024-01-30T02:56:53;-0.80;98.50
4635;DHT22;2330;48.158;11.816;2024-01-30T02:59:19;-0.80;98.50
4635;DHT22;2330;48.158;11.816;2024-01-30T03:01:46;-0.70;98.50
4635;DHT22;2330;48.158;11.816;2024-01-30T03:04:14;-0.60;98.50
4635;DHT22;2330;48.158;11.816;2024-01-30T03:06:45;-0.50;98.50
4635;DHT22;2330;48.158;11.816;2024-01-30T03:09:18;-0.50;98.50
4635;DHT22;2330;48.158;11.816;2024-01-30T03:11:45;-0.50;98.50
4635;DHT22;2330;48.158;11.816;2024-01-30T03:14:12;-0.50;98.50
4635;DHT22;2330;48.158;11.816;2024-01-30T03:16:38;-0.50;98.50
4635;DHT22;2330;48.158;11.816;2024-01-30T03:19:06;-0.60;98.50
4635;DHT22;2330;48.158;11.816;2024-01-30T03:21:36;-0.70;98.50
4635;DHT22;2330;48.158;11.816;2024-01-30T03:24:03;-0.60;98.50
4635;DHT22;2330;48.158;11.816;2024-01-30T03:26:30;-0.40;98.50
4635;DHT22;2330;48.158;11.816;2024-01-30T03:28:57;-0.50;98.50
4635;DHT22;2330;48.158;11.816;2024-01-30T03:31:24;-0.60;98.50
4635;DHT22;2330;48.158;11.816;2024-01-30T03:33:51;-0.70;98.50
4635;DHT22;2330;48.158;11.816;2024-01-30T03:36:18;-0.80;98.50
4635;DHT22;2330;48.158;11.816;2024-01-30T03:38:45;-0.90;98.50
4635;DHT22;2330;48.158;11.816;2024-01-30T03:41:11;-0.90;98.50
4635;DHT22;2330;48.158;11.816;2024-01-30T03:43:38;-0.90;98.50
4635;DHT22;2330;48.158;11.816;2024-01-30T03:46:05;-0.90;98.50
4635;DHT22;2330;48.158;11.816;2024-01-30T03:48:32;-0.90;98.50
4635;DHT22;2330;48.158;11.816;2024-01-30T03:50:58;-0.90;98.50
4635;DHT22;2330;48.158;11.816;2024-01-30T03:53:25;-0.80;98.50
4635;DHT22;2330;48.158;11.816;2024-01-30T03:55:52;-0.80;98.50
4635;DHT22;2330;48.158;11.816;2024-01-30T03:58:19;-0.70;98.50
4635;DHT22;2330;48.158;11.816;2024-01-30T04:00:46;-0.70;98.50
4635;DHT22;2330;48.158;11.816;2024-01-30T04:03:14;-0.70;98.50
4635;DHT22;2330;48.158;11.816;2024-01-30T04:05:42;-0.60;98.50
4635;DHT22;2330;48.158;11.816;2024-01-30T04:08:09;-0.60;98.50
4635;DHT22;2330;48.158;11.816;2024-01-30T04:10:36;-0.60;98.50
4635;DHT22;2330;48.158;11.816;2024-01-30T04:13:03;-0.60;98.50
4635;DHT22;2330;48.158;11.816;2024-01-30T04:15:29;-0.70;98.50
4635;DHT22;2330;48.158;11.816;2024-01-30T04:17:59;-0.70;98.50
4635;DHT22;2330;48.158;11.816;2024-01-30T04:20:26;-0.70;98.50
4635;DHT22;2330;48.158;11.816;2024-01-30T04:22:53;-0.60;98.50
4635;DHT22;2330;48.158;11.816;2024-01-30T04:25:20;-0.70;98.50
4635;DHT22;2330;48.158;11.816;2024-01-30T04:27:47;-0.70;98.50
4635;DHT22;2330;48.158;11.816;2024-01-30T04:30:14;-0.80;98.50
4635;DHT22;2330;48.158;11.816;2024-01-30T04:32:41;-0.80;98.50
4635;DHT22;2330;48.158;11.816;2024-01-30T04:35:08;-0.80;98.50
4635;DHT22;2330;48.158;11.816;2024-01-30T04:37:37;-0.80;98.50
4635;DHT22;2330;48.158;11.816;2024-01-30T04:40:05;-0.70;98.50
4635;DHT22;2330;48.158;11.816;2024-01-30T04:42:32;-0.70;98.50
4635;DHT22;2330;48.158;11.816;2024-01-30T04:44:59;-0.70;98.50
4635;DHT22;2330;48.158;11.816;2024-01-30T04:47:26;-0.80;98.50
4635;DHT22;2330;48.158;11.816;2024-01-30T04:49:53;-0.80;98.50
4635;DHT22;2330;48.158;11.816;2024-01-30T04:52:20;-0.90;98.50
4635;DHT22;2330;48.158;11.816;2024-01-30T04:54:47;-0.90;98.50
4635;DHT22;2330;48.158;11.816;2024-01-30T04:57:14;-0.80;98.50
4635;DHT22;2330;48.158;11.816;2024-01-30T04:59:41;-0.80;98.50
4635;DHT22;2330;48.158;11.816;2024-01-30T05:02:07;-0.90;98.50
4635;DHT22;2330;48.158;11.816;2024-01-30T05:04:35;-1.00;98.50
4635;DHT22;2330;48.158;11.816;2024-01-30T05:07:01;-1.00;98.50
4635;DHT22;2330;48.158;11.816;2024-01-30T05:09:28;-1.10;98.50
4635;DHT22;2330;48.158;11.816;2024-01-30T05:11:55;-1.10;98.50
4635;DHT22;2330;48.158;11.816;2024-01-30T05:14:22;-1.10;98.50
4635;DHT22;2330;48.158;11.816;2024-01-30T05:16:49;-1.10;98.50
4635;DHT22;2330;48.158;11.816;2024-01-30T05:19:16;-1.00;98.50
4635;DHT22;2330;48.158;11.816;2024-01-30T05:21:44;-1.00;98.50
4635;DHT22;2330;48.158;11.816;2024-01-30T05:24:11;-1.00;98.50
4635;DHT22;2330;48.158;11.816;2024-01-30T05:26:38;-1.00;98.50
4635;DHT22;2330;48.158;11.816;2024-01-30T05:29:06;-1.10;98.50
4635;DHT22;2330;48.158;11.816;2024-01-30T05:31:33;-1.10;98.50
4635;DHT22;2330;48.158;11.816;2024-01-30T05:34:01;-1.10;98.50
4635;DHT22;2330;48.158;11.816;2024-01-30T05:36:28;-1.00;98.50
4635;DHT22;2330;48.158;11.816;2024-01-30T05:38:56;-0.90;98.50
4635;DHT22;2330;48.158;11.816;2024-01-30T05:41:22;-0.90;98.50
4635;DHT22;2330;48.158;11.816;2024-01-30T05:43:49;-0.80;98.50
4635;DHT22;2330;48.158;11.816;2024-01-30T05:46:16;-0.70;98.50
4635;DHT22;2330;48.158;11.816;2024-01-30T05:48:43;-0.70;98.50
4635;DHT22;2330;48.158;11.816;2024-01-30T05:51:10;-0.80;98.50
4635;DHT22;2330;48.158;11.816;2024-01-30T05:53:37;-0.80;98.50
4635;DHT22;2330;48.158;11.816;2024-01-30T05:56:04;-0.90;98.50
4635;DHT22;2330;48.158;11.816;2024-01-30T05:58:31;-1.00;98.50
4635;DHT22;2330;48.158;11.816;2024-01-30T06:00:58;-1.00;98.50
4635;DHT22;2330;48.158;11.816;2024-01-30T06:03:25;-1.10;98.50
4635;DHT22;2330;48.158;11.816;2024-01-30T06:05:52;-1.10;98.50
4635;DHT22;2330;48.158;11.816;2024-01-30T06:08:19;-1.20;98.50
4635;DHT22;2330;48.158;11.816;2024-01-30T06:10:46;-1.30;98.50
4635;DHT22;2330;48.158;11.816;2024-01-30T06:13:14;-1.30;98.50
4635;DHT22;2330;48.158;11.816;2024-01-30T06:15:41;-1.40;98.50
4635;DHT22;2330;48.158;11.816;2024-01-30T06:18:08;-1.40;98.50
4635;DHT22;2330;48.158;11.816;2024-01-30T06:20:35;-1.40;98.50
4635;DHT22;2330;48.158;11.816;2024-01-30T06:23:02;-1.40;98.50
4635;DHT22;2330;48.158;11.816;2024-01-30T06:25:29;-1.40;98.50
4635;DHT22;2330;48.158;11.816;2024-01-30T06:27:56;-1.40;98.50
4635;DHT22;2330;48.158;11.816;2024-01-30T06:30:23;-1.40;98.50
4635;DHT22;2330;48.158;11.816;2024-01-30T06:32:50;-1.30;98.50
4635;DHT22;2330;48.158;11.816;2024-01-30T06:35:17;-1.30;98.50
4635;DHT22;2330;48.158;11.816;2024-01-30T06:37:44;-1.40;98.50
4635;DHT22;2330;48.158;11.816;2024-01-30T06:40:12;-1.40;98.50
4635;DHT22;2330;48.158;11.816;2024-01-30T06:42:39;-1.40;98.50
4635;DHT22;2330;48.158;11.816;2024-01-30T06:45:06;-1.40;98.50
4635;DHT22;2330;48.158;11.816;2024-01-30T06:47:34;-1.40;98.50
4635;DHT22;2330;48.158;11.816;2024-01-30T06:50:01;-1.40;98.50
4635;DHT22;2330;48.158;11.816;2024-01-30T06:52:29;-1.30;98.50
4635;DHT22;2330;48.158;11.816;2024-01-30T06:54:56;-1.30;98.50
4635;DHT22;2330;48.158;11.816;2024-01-30T06:57:22;-1.40;98.50
4635;DHT22;2330;48.158;11.816;2024-01-30T06:59:49;-1.30;98.50
4635;DHT22;2330;48.158;11.816;2024-01-30T07:02:16;-1.30;98.50
4635;DHT22;2330;48.158;11.816;2024-01-30T07:04:44;-1.30;98.50
4635;DHT22;2330;48.158;11.816;2024-01-30T07:07:13;-1.30;98.50
4635;DHT22;2330;48.158;11.816;2024-01-30T07:09:42;-1.30;98.50
4635;DHT22;2330;48.158;11.816;2024-01-30T07:12:09;-1.30;98.50
4635;DHT22;2330;48.158;11.816;2024-01-30T07:14:36;-1.20;98.50
4635;DHT22;2330;48.158;11.816;2024-01-30T07:17:02;-1.10;98.50
4635;DHT22;2330;48.158;11.816;2024-01-30T07:19:30;-1.00;98.50
4635;DHT22;2330;48.158;11.816;2024-01-30T07:21:57;-1.00;98.50
4635;DHT22;2330;48.158;11.816;2024-01-30T07:24:24;-0.80;98.50
4635;DHT22;2330;48.158;11.816;2024-01-30T07:26:51;-0.70;98.50
4635;DHT22;2330;48.158;11.816;2024-01-30T07:29:18;-0.50;98.50
4635;DHT22;2330;48.158;11.816;2024-01-30T07:31:44;-0.40;98.50
4635;DHT22;2330;48.158;11.816;2024-01-30T07:34:11;-0.30;98.50
4635;DHT22;2330;48.158;11.816;2024-01-30T07:36:38;-0.10;98.50
4635;DHT22;2330;48.158;11.816;2024-01-30T07:39:05;0.10;98.50
4635;DHT22;2330;48.158;11.816;2024-01-30T07:41:32;0.40;98.50
4635;DHT22;2330;48.158;11.816;2024-01-30T07:44:00;0.50;98.50
4635;DHT22;2330;48.158;11.816;2024-01-30T07:46:27;0.60;98.50
4635;DHT22;2330;48.158;11.816;2024-01-30T07:48:54;0.80;98.50
4635;DHT22;2330;48.158;11.816;2024-01-30T07:51:22;0.90;98.50
4635;DHT22;2330;48.158;11.816;2024-01-30T07:53:49;1.00;98.50
4635;DHT22;2330;48.158;11.816;2024-01-30T07:56:16;1.10;98.50
4635;DHT22;2330;48.158;11.816;2024-01-30T07:58:44;1.10;98.50
4635;DHT22;2330;48.158;11.816;2024-01-30T08:01:11;1.40;98.50
4635;DHT22;2330;48.158;11.816;2024-01-30T08:03:38;1.60;98.50
4635;DHT22;2330;48.158;11.816;2024-01-30T08:06:08;1.80;98.50
4635;DHT22;2330;48.158;11.816;2024-01-30T08:08:34;2.00;98.50
4635;DHT22;2330;48.158;11.816;2024-01-30T08:11:01;2.20;98.50
4635;DHT22;2330;48.158;11.816;2024-01-30T08:13:28;2.30;98.50
4635;DHT22;2330;48.158;11.816;2024-01-30T08:15:55;2.50;98.50
4635;DHT22;2330;48.158;11.816;2024-01-30T08:18:22;2.70;98.50
4635;DHT22;2330;48.158;11.816;2024-01-30T08:20:49;2.90;98.50
4635;DHT22;2330;48.158;11.816;2024-01-30T08:23:16;3.10;98.50
4635;DHT22;2330;48.158;11.816;2024-01-30T08:25:42;3.30;98.50
4635;DHT22;2330;48.158;11.816;2024-01-30T08:28:09;3.50;98.50
4635;DHT22;2330;48.158;11.816;2024-01-30T08:30:36;3.80;98.50
4635;DHT22;2330;48.158;11.816;2024-01-30T08:33:05;3.90;98.50
4635;DHT22;2330;48.158;11.816;2024-01-30T08:35:32;4.10;98.50
4635;DHT22;2330;48.158;11.816;2024-01-30T08:38:00;4.40;98.50
4635;DHT22;2330;48.158;11.816;2024-01-30T08:40:27;4.60;98.50
4635;DHT22;2330;48.158;11.816;2024-01-30T08:42:55;4.70;98.50
4635;DHT22;2330;48.158;11.816;2024-01-30T08:45:22;4.90;98.50
4635;DHT22;2330;48.158;11.816;2024-01-30T08:47:49;5.10;98.50
4635;DHT22;2330;48.158;11.816;2024-01-30T08:50:16;5.20;98.50
4635;DHT22;2330;48.158;11.816;2024-01-30T08:52:43;5.40;98.50
4635;DHT22;2330;48.158;11.816;2024-01-30T08:55:12;5.40;98.50
4635;DHT22;2330;48.158;11.816;2024-01-30T08:57:40;5.50;98.50
4635;DHT22;2330;48.158;11.816;2024-01-30T09:00:07;5.70;98.50
4635;DHT22;2330;48.158;11.816;2024-01-30T09:02:36;5.70;98.50
4635;DHT22;2330;48.158;11.816;2024-01-30T09:05:03;5.90;98.50
4635;DHT22;2330;48.158;11.816;2024-01-30T09:07:30;6.00;98.50
4635;DHT22;2330;48.158;11.816;2024-01-30T09:09:57;6.20;98.50
4635;DHT22;2330;48.158;11.816;2024-01-30T09:12:24;6.30;98.50
4635;DHT22;2330;48.158;11.816;2024-01-30T09:14:51;6.50;98.50
4635;DHT22;2330;48.158;11.816;2024-01-30T09:17:18;6.60;98.50
4635;DHT22;2330;48.158;11.816;2024-01-30T09:19:46;6.70;98.50
4635;DHT22;2330;48.158;11.816;2024-01-30T09:22:13;6.90;98.50
4635;DHT22;2330;48.158;11.816;2024-01-30T09:24:40;7.00;98.20
4635;DHT22;2330;48.158;11.816;2024-01-30T09:27:07;7.10;97.00
4635;DHT22;2330;48.158;11.816;2024-01-30T09:29:34;7.20;96.30
4635;DHT22;2330;48.158;11.816;2024-01-30T09:32:04;7.30;95.50
4635;DHT22;2330;48.158;11.816;2024-01-30T09:34:32;7.40;95.30
4635;DHT22;2330;48.158;11.816;2024-01-30T09:36:59;7.50;95.10
4635;DHT22;2330;48.158;11.816;2024-01-30T09:39:27;7.70;95.10
4635;DHT22;2330;48.158;11.816;2024-01-30T09:44:44;7.90;94.80
4635;DHT22;2330;48.158;11.816;2024-01-30T09:47:11;8.00;94.50
4635;DHT22;2330;48.158;11.816;2024-01-30T09:49:38;8.10;93.80
4635;DHT22;2330;48.158;11.816;2024-01-30T09:52:06;8.20;93.00
4635;DHT22;2330;48.158;11.816;2024-01-30T09:54:35;8.20;92.20
4635;DHT22;2330;48.158;11.816;2024-01-30T09:57:03;8.30;92.40
4635;DHT22;2330;48.158;11.816;2024-01-30T09:59:30;8.30;92.20
4635;DHT22;2330;48.158;11.816;2024-01-30T10:01:57;8.40;95.20
4635;DHT22;2330;48.158;11.816;2024-01-30T10:04:24;8.30;96.80
4635;DHT22;2330;48.158;11.816;2024-01-30T10:06:51;8.40;97.30
4635;DHT22;2330;48.158;11.816;2024-01-30T10:09:18;8.40;97.80
4635;DHT22;2330;48.158;11.816;2024-01-30T10:11:46;8.40;98.00
4635;DHT22;2330;48.158;11.816;2024-01-30T10:14:12;8.50;97.80
4635;DHT22;2330;48.158;11.816;2024-01-30T10:16:39;8.50;97.80
4635;DHT22;2330;48.158;11.816;2024-01-30T10:19:06;8.50;97.40
4635;DHT22;2330;48.158;11.816;2024-01-30T10:21:33;8.60;97.00
4635;DHT22;2330;48.158;11.816;2024-01-30T10:24:00;8.60;96.80
4635;DHT22;2330;48.158;11.816;2024-01-30T10:26:27;8.60;96.90
4635;DHT22;2330;48.158;11.816;2024-01-30T10:28:55;8.60;96.70
4635;DHT22;2330;48.158;11.816;2024-01-30T10:31:22;8.70;96.00
4635;DHT22;2330;48.158;11.816;2024-01-30T10:33:51;8.70;95.90
4635;DHT22;2330;48.158;11.816;2024-01-30T10:36:28;8.80;95.70
4635;DHT22;2330;48.158;11.816;2024-01-30T10:38:59;8.80;95.60
4635;DHT22;2330;48.158;11.816;2024-01-30T10:41:27;8.80;94.90
4635;DHT22;2330;48.158;11.816;2024-01-30T10:44:02;8.90;93.50
4635;DHT22;2330;48.158;11.816;2024-01-30T10:46:31;9.00;92.70
4635;DHT22;2330;48.158;11.816;2024-01-30T10:48:59;9.10;91.50
4635;DHT22;2330;48.158;11.816;2024-01-30T10:51:28;9.20;90.60
4635;DHT22;2330;48.158;11.816;2024-01-30T10:53:56;9.40;89.70
4635;DHT22;2330;48.158;11.816;2024-01-30T10:56:25;9.50;89.40
4635;DHT22;2330;48.158;11.816;2024-01-30T10:58:52;9.70;89.10
4635;DHT22;2330;48.158;11.816;2024-01-30T11:01:23;9.80;87.80
4635;DHT22;2330;48.158;11.816;2024-01-30T11:03:52;9.90;86.40
4635;DHT22;2330;48.158;11.816;2024-01-30T11:06:25;10.00;86.40
4635;DHT22;2330;48.158;11.816;2024-01-30T11:09:03;10.10;87.10
4635;DHT22;2330;48.158;11.816;2024-01-30T11:11:50;10.30;86.90
4635;DHT22;2330;48.158;11.816;2024-01-30T11:14:23;10.50;86.10
4635;DHT22;2330;48.158;11.816;2024-01-30T11:16:50;10.70;84.90
4635;DHT22;2330;48.158;11.816;2024-01-30T11:19:27;10.80;83.60
4635;DHT22;2330;48.158;11.816;2024-01-30T11:21:54;10.70;83.90
4635;DHT22;2330;48.158;11.816;2024-01-30T11:24:24;10.50;83.90
4635;DHT22;2330;48.158;11.816;2024-01-30T11:26:58;10.20;84.40
4635;DHT22;2330;48.158;11.816;2024-01-30T11:29:27;10.00;85.00
4635;DHT22;2330;48.158;11.816;2024-01-30T11:31:56;9.80;85.50
4635;DHT22;2330;48.158;11.816;2024-01-30T11:34:23;9.70;85.90
4635;DHT22;2330;48.158;11.816;2024-01-30T11:36:59;9.50;86.60
4635;DHT22;2330;48.158;11.816;2024-01-30T11:39:26;9.40;87.30
4635;DHT22;2330;48.158;11.816;2024-01-30T11:41:53;9.30;87.20
4635;DHT22;2330;48.158;11.816;2024-01-30T11:44:20;9.20;87.50
4635;DHT22;2330;48.158;11.816;2024-01-30T11:46:52;9.20;87.50
4635;DHT22;2330;48.158;11.816;2024-01-30T11:49:19;9.30;87.70
4635;DHT22;2330;48.158;11.816;2024-01-30T11:51:46;9.30;87.50
4635;DHT22;2330;48.158;11.816;2024-01-30T11:54:16;9.40;86.90
4635;DHT22;2330;48.158;11.816;2024-01-30T11:56:43;9.70;86.90
4635;DHT22;2330;48.158;11.816;2024-01-30T11:59:10;10.00;86.60
4635;DHT22;2330;48.158;11.816;2024-01-30T12:01:37;10.30;85.80
4635;DHT22;2330;48.158;11.816;2024-01-30T12:04:04;10.60;85.30
4635;DHT22;2330;48.158;11.816;2024-01-30T12:06:36;10.90;85.00
4635;DHT22;2330;48.158;11.816;2024-01-30T12:09:03;11.30;85.00
4635;DHT22;2330;48.158;11.816;2024-01-30T12:11:46;11.70;84.00
4635;DHT22;2330;48.158;11.816;2024-01-30T12:14:14;12.00;82.10
4635;DHT22;2330;48.158;11.816;2024-01-30T12:16:41;12.10;82.10
4635;DHT22;2330;48.158;11.816;2024-01-30T12:19:08;12.00;82.80
4635;DHT22;2330;48.158;11.816;2024-01-30T12:21:35;11.80;82.50
4635;DHT22;2330;48.158;11.816;2024-01-30T12:24:02;11.80;82.10
4635;DHT22;2330;48.158;11.816;2024-01-30T12:26:29;11.90;81.90
4635;DHT22;2330;48.158;11.816;2024-01-30T12:28:56;12.20;81.00
4635;DHT22;2330;48.158;11.816;2024-01-30T12:31:28;12.30;80.90
4635;DHT22;2330;48.158;11.816;2024-01-30T12:33:55;12.40;79.40
4635;DHT22;2330;48.158;11.816;2024-01-30T12:36:25;12.60;78.00
4635;DHT22;2330;48.158;11.816;2024-01-30T12:38:52;12.80;78.70
4635;DHT22;2330;48.158;11.816;2024-01-30T12:41:20;13.10;77.70
4635;DHT22;2330;48.158;11.816;2024-01-30T12:43:47;13.10;78.30
4635;DHT22;2330;48.158;11.816;2024-01-30T12:46:17;12.70;79.20
4635;DHT22;2330;48.158;11.816;2024-01-30T12:48:44;12.50;80.30
4635;DHT22;2330;48.158;11.816;2024-01-30T12:51:11;12.40;80.50
4635;DHT22;2330;48.158;11.816;2024-01-30T12:53:38;12.50;80.70
4635;DHT22;2330;48.158;11.816;2024-01-30T12:56:05;12.50;80.10
4635;DHT22;2330;48.158;11.816;2024-01-30T12:58:32;12.60;79.60
4635;DHT22;2330;48.158;11.816;2024-01-30T13:00:58;12.80;79.20
4635;DHT22;2330;48.158;11.816;2024-01-30T13:03:25;12.90;79.00
4635;DHT22;2330;48.158;11.816;2024-01-30T13:05:53;13.10;79.60
4635;DHT22;2330;48.158;11.816;2024-01-30T13:08:20;13.30;79.40
4635;DHT22;2330;48.158;11.816;2024-01-30T13:10:47;13.50;79.30
4635;DHT22;2330;48.158;11.816;2024-01-30T13:13:17;13.60;78.60
4635;DHT22;2330;48.158;11.816;2024-01-30T13:15:47;13.80;78.20
4635;DHT22;2330;48.158;11.816;2024-01-30T13:18:14;13.80;78.50
4635;DHT22;2330;48.158;11.816;2024-01-30T13:20:41;14.00;78.20
4635;DHT22;2330;48.158;11.816;2024-01-30T13:23:09;14.20;77.60
4635;DHT22;2330;48.158;11.816;2024-01-30T13:25:37;14.30;76.50
4635;DHT22;2330;48.158;11.816;2024-01-30T13:28:04;14.40;76.00
4635;DHT22;2330;48.158;11.816;2024-01-30T13:30:31;14.40;75.40
4635;DHT22;2330;48.158;11.816;2024-01-30T13:32:58;14.30;76.10
4635;DHT22;2330;48.158;11.816;2024-01-30T13:35:26;14.10;76.20
4635;DHT22;2330;48.158;11.816;2024-01-30T13:37:53;14.00;76.20
4635;DHT22;2330;48.158;11.816;2024-01-30T13:40:20;13.90;76.30
4635;DHT22;2330;48.158;11.816;2024-01-30T13:42:49;13.90;77.20
4635;DHT22;2330;48.158;11.816;2024-01-30T13:45:16;13.90;77.30
4635;DHT22;2330;48.158;11.816;2024-01-30T13:47:43;14.00;78.20
4635;DHT22;2330;48.158;11.816;2024-01-30T13:50:10;13.90;78.30
4635;DHT22;2330;48.158;11.816;2024-01-30T13:52:42;13.90;78.50
4635;DHT22;2330;48.158;11.816;2024-01-30T13:55:11;14.00;78.30
4635;DHT22;2330;48.158;11.816;2024-01-30T13:57:39;14.00;77.70
4635;DHT22;2330;48.158;11.816;2024-01-30T14:00:07;14.00;77.70
4635;DHT22;2330;48.158;11.816;2024-01-30T14:02:34;14.00;77.90
4635;DHT22;2330;48.158;11.816;2024-01-30T14:05:02;14.00;77.80
4635;DHT22;2330;48.158;11.816;2024-01-30T14:07:31;14.00;77.50
4635;DHT22;2330;48.158;11.816;2024-01-30T14:09:59;14.00;77.20
4635;DHT22;2330;48.158;11.816;2024-01-30T14:12:26;14.00;77.30
4635;DHT22;2330;48.158;11.816;2024-01-30T14:14:53;14.00;77.30
4635;DHT22;2330;48.158;11.816;2024-01-30T14:17:20;13.90;75.00
4635;DHT22;2330;48.158;11.816;2024-01-30T14:19:47;13.80;74.90
4635;DHT22;2330;48.158;11.816;2024-01-30T14:22:14;13.60;74.40
4635;DHT22;2330;48.158;11.816;2024-01-30T14:24:40;13.50;74.30
4635;DHT22;2330;48.158;11.816;2024-01-30T14:27:07;13.40;74.20
4635;DHT22;2330;48.158;11.816;2024-01-30T14:29:35;13.30;74.40
4635;DHT22;2330;48.158;11.816;2024-01-30T14:32:02;13.10;74.60
4635;DHT22;2330;48.158;11.816;2024-01-30T14:34:30;13.00;75.30
4635;DHT22;2330;48.158;11.816;2024-01-30T14:36:57;12.80;76.30
4635;DHT22;2330;48.158;11.816;2024-01-30T14:39:24;12.70;77.50
4635;DHT22;2330;48.158;11.816;2024-01-30T14:41:51;12.50;80.30
4635;DHT22;2330;48.158;11.816;2024-01-30T14:44:18;12.20;82.70
4635;DHT22;2330;48.158;11.816;2024-01-30T14:46:45;12.00;84.90
4635;DHT22;2330;48.158;11.816;2024-01-30T14:49:12;11.80;86.70
4635;DHT22;2330;48.158;11.816;2024-01-30T14:51:39;11.70;87.90
4635;DHT22;2330;48.158;11.816;2024-01-30T14:54:06;11.50;89.10
4635;DHT22;2330;48.158;11.816;2024-01-30T14:56:33;11.30;89.90
4635;DHT22;2330;48.158;11.816;2024-01-30T14:59:00;11.10;90.20
4635;DHT22;2330;48.158;11.816;2024-01-30T15:01:27;11.00;90.20
4635;DHT22;2330;48.158;11.816;2024-01-30T15:03:54;10.80;90.50
4635;DHT22;2330;48.158;11.816;2024-01-30T15:06:22;10.70;90.60
4635;DHT22;2330;48.158;11.816;2024-01-30T15:08:52;10.60;90.50
4635;DHT22;2330;48.158;11.816;2024-01-30T15:11:20;10.50;90.60
4635;DHT22;2330;48.158;11.816;2024-01-30T15:13:46;10.40;90.90
4635;DHT22;2330;48.158;11.816;2024-01-30T15:16:13;10.20;91.80
4635;DHT22;2330;48.158;11.816;2024-01-30T15:18:40;10.10;92.10
4635;DHT22;2330;48.158;11.816;2024-01-30T15:21:07;10.00;92.70
4635;DHT22;2330;48.158;11.816;2024-01-30T15:23:34;9.90;92.70
4635;DHT22;2330;48.158;11.816;2024-01-30T15:26:01;9.80;93.70
4635;DHT22;2330;48.158;11.816;2024-01-30T15:28:36;9.60;94.40
4635;DHT22;2330;48.158;11.816;2024-01-30T15:31:04;9.50;94.60
4635;DHT22;2330;48.158;11.816;2024-01-30T15:33:32;9.40;94.80
4635;DHT22;2330;48.158;11.816;2024-01-30T15:36:00;9.30;94.60
4635;DHT22;2330;48.158;11.816;2024-01-30T15:38:27;9.20;94.90
4635;DHT22;2330;48.158;11.816;2024-01-30T15:40:56;9.00;94.90
4635;DHT22;2330;48.158;11.816;2024-01-30T15:43:23;8.90;95.70
4635;DHT22;2330;48.158;11.816;2024-01-30T15:45:51;8.80;96.00
4635;DHT22;2330;48.158;11.816;2024-01-30T15:48:19;8.70;96.60
4635;DHT22;2330;48.158;11.816;2024-01-30T15:50:46;8.60;96.80
4635;DHT22;2330;48.158;11.816;2024-01-30T15:53:13;8.50;97.30
4635;DHT22;2330;48.158;11.816;2024-01-30T15:55:40;8.40;97.70